Mild Tune — VROS2 — position and weather

sailwx.info

Track history (hours):
 
Tides and Currents Weather Stations Pressure Air Temp Water Temp Dewpoint Dewpoint Depression Visibility Wind Speed Wind Dir Waves Ship Positions

Mild Tune

Last reported at 2017-Nov-16 23:53 UTC. Time now 2017-Nov-18 23:29 UTC.
Position N 34°55' E 139°25'.

Length 147 m; draft 7.8 m.

Type: Cargo ship. MMSI: 477524300.

Date/timePositionNaut miles runAvg speedWind from/ knotsBaromVisibWave heightAir tempDewpointWater temp
2017-Nov-16 23:53N 34°55' E 139°25'719.0
2017-Nov-16 23:30N 34°59' E 139°32'918.8
2017-Nov-16 23:00N 35°05' E 139°41'917.9
2017-Nov-16 22:30N 35°13' E 139°46'613.0
2017-Nov-16 22:01N 35°19' E 139°43'714.5
2017-Nov-16 21:30N 35°26' E 139°43'2 4.3
2017-Nov-16 20:59N 35°27' E 139°41'0 0.0
2017-Nov-16 20:29N 35°27' E 139°41'0 0.0
2017-Nov-16 19:59N 35°27' E 139°41'0 0.0
2017-Nov-16 19:29N 35°27' E 139°41'0 0.0
2017-Nov-16 18:59N 35°27' E 139°41'0 0.0
2017-Nov-16 18:29N 35°27' E 139°41'0 0.0
2017-Nov-16 17:59N 35°27' E 139°41'0 0.0
2017-Nov-16 17:29N 35°28' E 139°41'0 0.0
2017-Nov-16 16:59N 35°27' E 139°41'0 0.0
2017-Nov-16 16:29N 35°27' E 139°41'0 0.0
2017-Nov-16 15:59N 35°27' E 139°41'0 0.0
2017-Nov-16 15:29N 35°27' E 139°41'0 0.0
2017-Nov-16 14:59N 35°27' E 139°41'0 0.0
2017-Nov-16 14:29N 35°27' E 139°41'0 0.0
2017-Nov-16 13:59N 35°27' E 139°41'0 0.0
2017-Nov-16 13:29N 35°27' E 139°41'0 0.0
2017-Nov-16 12:59N 35°27' E 139°41'0 0.0
2017-Nov-16 12:29N 35°27' E 139°41'0 0.0
2017-Nov-16 11:59N 35°27' E 139°41'0 0.0
2017-Nov-16 11:29N 35°27' E 139°41'0 0.0
2017-Nov-16 10:59N 35°28' E 139°41'1 1.9
2017-Nov-16 10:30N 35°28' E 139°43'2 4.0
2017-Nov-16 10:01N 35°27' E 139°45'612.1
2017-Nov-16 09:30N 35°30' E 139°51'612.5
2017-Nov-16 09:00N 35°36' E 139°47'2 4.2
2017-Nov-16 08:30N 35°37' E 139°46'0 0.0
2017-Nov-16 06:11N 35°37' E 139°46'0 0.0
2017-Nov-16 05:20N 35°37' E 139°46'0 0.0
2017-Nov-16 04:56N 35°37' E 139°46'0 0.0
2017-Nov-16 02:08N 35°37' E 139°46'0 0.0
2017-Nov-16 01:44N 35°37' E 139°46'0 0.0
2017-Nov-16 01:29N 35°37' E 139°46'0 0.0
2017-Nov-16 00:59N 35°37' E 139°46'0 0.0
2017-Nov-15 23:14N 35°37' E 139°46'0 0.0
2017-Nov-15 22:56N 35°37' E 139°46'0 0.2
2017-Nov-15 22:27N 35°37' E 139°46'2 3.4
2017-Nov-15 22:00N 35°36' E 139°47'611.5
2017-Nov-15 21:30N 35°32' E 139°52'611.6
2017-Nov-15 21:00N 35°27' E 139°49'611.9
2017-Nov-15 20:30N 35°22' E 139°45'5 9.4
2017-Nov-15 20:00N 35°17' E 139°46'510.6
2017-Nov-15 19:30N 35°12' E 139°47'611.0
2017-Nov-15 19:00N 35°07' E 139°45'611.3
2017-Nov-15 18:30N 35°02' E 139°41'713.8
2017-Nov-15 18:00N 34°58' E 139°34'815.7
2017-Nov-15 17:30N 34°54' E 139°26'  
2017-Nov-13 02:00N 31°20' E 121°40'0 0.0
2017-Nov-13 01:30N 31°20' E 121°40'0 0.0
2017-Nov-13 01:00N 31°20' E 121°40'0 0.0
2017-Nov-13 00:30N 31°20' E 121°40'0 0.0
2017-Nov-12 23:59N 31°20' E 121°40'0 0.1
2017-Nov-12 23:30N 31°20' E 121°40'0 0.0
2017-Nov-12 23:00N 31°20' E 121°40'0 0.1
2017-Nov-12 22:30N 31°20' E 121°40'0 0.0
2017-Nov-12 21:59N 31°20' E 121°40'0 0.0
2017-Nov-12 21:30N 31°20' E 121°40'0 0.0
2017-Nov-12 21:00N 31°20' E 121°40'0 0.0
2017-Nov-12 20:30N 31°20' E 121°40'0 0.0
2017-Nov-12 20:00N 31°20' E 121°40'1 1.2
2017-Nov-12 19:30N 31°20' E 121°41'4 8.5
2017-Nov-12 19:00N 31°18' E 121°46'510.1
2017-Nov-12 18:30N 31°16' E 121°51'510.3
2017-Nov-12 18:00N 31°15' E 121°57'510.8
2017-Nov-12 17:30N 31°14' E 122°03'510.6
2017-Nov-12 17:00N 31°12' E 122°09'711.1
2017-Nov-12 16:20N 31°08' E 122°16'512.3
2017-Nov-12 15:54N 31°06' E 122°22'2514.1
2017-Nov-12 14:10N 31°07' E 122°51'2416.7
2017-Nov-12 12:44N 31°09' E 123°19'  
2017-Nov-10 07:13N 34°53' E 139°21'417.2
2017-Nov-10 06:58N 34°56' E 139°25'817.7
2017-Nov-10 06:30N 35°01' E 139°33'918.1
2017-Nov-10 06:00N 35°06' E 139°42'816.6
2017-Nov-10 05:30N 35°13' E 139°46'713.2
2017-Nov-10 05:00N 35°19' E 139°43'714.7
2017-Nov-10 04:31N 35°26' E 139°43'2 3.6
2017-Nov-10 03:59N 35°28' E 139°42'0 0.0
2017-Nov-10 03:29N 35°28' E 139°42'0 0.0
2017-Nov-10 02:59N 35°28' E 139°42'0 0.0
2017-Nov-10 02:29N 35°28' E 139°42'0 0.0
2017-Nov-10 01:59N 35°28' E 139°42'0 0.0
2017-Nov-10 01:29N 35°28' E 139°42'0 0.0
2017-Nov-10 00:59N 35°28' E 139°42'0 0.0
2017-Nov-10 00:29N 35°28' E 139°42'0 0.0
2017-Nov-09 23:59N 35°28' E 139°42'0 0.0
2017-Nov-09 23:29N 35°28' E 139°42'0 0.0
2017-Nov-09 23:00N 35°28' E 139°42'2 4.3
2017-Nov-09 22:30N 35°27' E 139°44'713.9
2017-Nov-09 22:00N 35°31' E 139°51'612.3
2017-Nov-09 21:30N 35°36' E 139°47'2 3.1
2017-Nov-09 20:56N 35°37' E 139°46'0 0.0
2017-Nov-09 20:14N 35°37' E 139°46'0 0.0
2017-Nov-09 19:56N 35°37' E 139°46'0 0.0
2017-Nov-09 18:08N 35°37' E 139°46'0 0.0
2017-Nov-09 17:56N 35°37' E 139°46'0 0.0
2017-Nov-09 17:20N 35°37' E 139°46'0 0.0
2017-Nov-08 22:38N 35°37' E 139°46'0 0.0
2017-Nov-08 22:30N 35°37' E 139°46'2 4.5
2017-Nov-08 22:00N 35°35' E 139°47'611.3
2017-Nov-08 21:30N 35°31' E 139°52'511.0
2017-Nov-08 21:01N 35°27' E 139°49'611.4
2017-Nov-08 20:31N 35°22' E 139°45'510.5
2017-Nov-08 20:01N 35°17' E 139°46'510.5
2017-Nov-08 19:31N 35°12' E 139°47'612.0
2017-Nov-08 19:01N 35°06' E 139°45'  
Track history (hours):
 
Tides and Currents Weather Stations Pressure Air Temp Water Temp Dewpoint Dewpoint Depression Visibility Wind Speed Wind Dir Waves Ship Positions

Mild Tune

Last reported at 2017-Nov-16 23:53 UTC. Time now 2017-Nov-18 23:29 UTC.
Position N 34°55' E 139°25'.

Length 147 m; draft 7.8 m.

Type: Cargo ship. MMSI: 477524300.

Date/timePositionNaut miles runAvg speedWind from/ knotsBaromVisibWave heightAir tempDewpointWater temp
2017-Nov-16 23:53N 34°55' E 139°25'719.0
2017-Nov-16 23:30N 34°59' E 139°32'918.8
2017-Nov-16 23:00N 35°05' E 139°41'917.9
2017-Nov-16 22:30N 35°13' E 139°46'613.0
2017-Nov-16 22:01N 35°19' E 139°43'714.5
2017-Nov-16 21:30N 35°26' E 139°43'2 4.3
2017-Nov-16 20:59N 35°27' E 139°41'0 0.0
2017-Nov-16 20:29N 35°27' E 139°41'0 0.0
2017-Nov-16 19:59N 35°27' E 139°41'0 0.0
2017-Nov-16 19:29N 35°27' E 139°41'0 0.0
2017-Nov-16 18:59N 35°27' E 139°41'0 0.0
2017-Nov-16 18:29N 35°27' E 139°41'0 0.0
2017-Nov-16 17:59N 35°27' E 139°41'0 0.0
2017-Nov-16 17:29N 35°28' E 139°41'0 0.0
2017-Nov-16 16:59N 35°27' E 139°41'0 0.0
2017-Nov-16 16:29N 35°27' E 139°41'0 0.0
2017-Nov-16 15:59N 35°27' E 139°41'0 0.0
2017-Nov-16 15:29N 35°27' E 139°41'0 0.0
2017-Nov-16 14:59N 35°27' E 139°41'0 0.0
2017-Nov-16 14:29N 35°27' E 139°41'0 0.0
2017-Nov-16 13:59N 35°27' E 139°41'0 0.0
2017-Nov-16 13:29N 35°27' E 139°41'0 0.0
2017-Nov-16 12:59N 35°27' E 139°41'0 0.0
2017-Nov-16 12:29N 35°27' E 139°41'0 0.0
2017-Nov-16 11:59N 35°27' E 139°41'0 0.0
2017-Nov-16 11:29N 35°27' E 139°41'0 0.0
2017-Nov-16 10:59N 35°28' E 139°41'1 1.9
2017-Nov-16 10:30N 35°28' E 139°43'2 4.0
2017-Nov-16 10:01N 35°27' E 139°45'612.1
2017-Nov-16 09:30N 35°30' E 139°51'612.5
2017-Nov-16 09:00N 35°36' E 139°47'2 4.2
2017-Nov-16 08:30N 35°37' E 139°46'0 0.0
2017-Nov-16 06:11N 35°37' E 139°46'0 0.0
2017-Nov-16 05:20N 35°37' E 139°46'0 0.0
2017-Nov-16 04:56N 35°37' E 139°46'0 0.0
2017-Nov-16 02:08N 35°37' E 139°46'0 0.0
2017-Nov-16 01:44N 35°37' E 139°46'0 0.0
2017-Nov-16 01:29N 35°37' E 139°46'0 0.0
2017-Nov-16 00:59N 35°37' E 139°46'0 0.0
2017-Nov-15 23:14N 35°37' E 139°46'0 0.0
2017-Nov-15 22:56N 35°37' E 139°46'0 0.2
2017-Nov-15 22:27N 35°37' E 139°46'2 3.4
2017-Nov-15 22:00N 35°36' E 139°47'611.5
2017-Nov-15 21:30N 35°32' E 139°52'611.6
2017-Nov-15 21:00N 35°27' E 139°49'611.9
2017-Nov-15 20:30N 35°22' E 139°45'5 9.4
2017-Nov-15 20:00N 35°17' E 139°46'510.6
2017-Nov-15 19:30N 35°12' E 139°47'611.0
2017-Nov-15 19:00N 35°07' E 139°45'611.3
2017-Nov-15 18:30N 35°02' E 139°41'713.8
2017-Nov-15 18:00N 34°58' E 139°34'815.7
2017-Nov-15 17:30N 34°54' E 139°26'  
2017-Nov-13 02:00N 31°20' E 121°40'0 0.0
2017-Nov-13 01:30N 31°20' E 121°40'0 0.0
2017-Nov-13 01:00N 31°20' E 121°40'0 0.0
2017-Nov-13 00:30N 31°20' E 121°40'0 0.0
2017-Nov-12 23:59N 31°20' E 121°40'0 0.1
2017-Nov-12 23:30N 31°20' E 121°40'0 0.0
2017-Nov-12 23:00N 31°20' E 121°40'0 0.1
2017-Nov-12 22:30N 31°20' E 121°40'0 0.0
2017-Nov-12 21:59N 31°20' E 121°40'0 0.0
2017-Nov-12 21:30N 31°20' E 121°40'0 0.0
2017-Nov-12 21:00N 31°20' E 121°40'0 0.0
2017-Nov-12 20:30N 31°20' E 121°40'0 0.0
2017-Nov-12 20:00N 31°20' E 121°40'1 1.2
2017-Nov-12 19:30N 31°20' E 121°41'4 8.5
2017-Nov-12 19:00N 31°18' E 121°46'510.1
2017-Nov-12 18:30N 31°16' E 121°51'510.3
2017-Nov-12 18:00N 31°15' E 121°57'510.8
2017-Nov-12 17:30N 31°14' E 122°03'510.6
2017-Nov-12 17:00N 31°12' E 122°09'711.1
2017-Nov-12 16:20N 31°08' E 122°16'512.3
2017-Nov-12 15:54N 31°06' E 122°22'2514.1
2017-Nov-12 14:10N 31°07' E 122°51'2416.7
2017-Nov-12 12:44N 31°09' E 123°19'  
2017-Nov-10 07:13N 34°53' E 139°21'417.2
2017-Nov-10 06:58N 34°56' E 139°25'817.7
2017-Nov-10 06:30N 35°01' E 139°33'918.1
2017-Nov-10 06:00N 35°06' E 139°42'816.6
2017-Nov-10 05:30N 35°13' E 139°46'713.2
2017-Nov-10 05:00N 35°19' E 139°43'714.7
2017-Nov-10 04:31N 35°26' E 139°43'2 3.6
2017-Nov-10 03:59N 35°28' E 139°42'0 0.0
2017-Nov-10 03:29N 35°28' E 139°42'0 0.0
2017-Nov-10 02:59N 35°28' E 139°42'0 0.0
2017-Nov-10 02:29N 35°28' E 139°42'0 0.0
2017-Nov-10 01:59N 35°28' E 139°42'0 0.0
2017-Nov-10 01:29N 35°28' E 139°42'0 0.0
2017-Nov-10 00:59N 35°28' E 139°42'0 0.0
2017-Nov-10 00:29N 35°28' E 139°42'0 0.0
2017-Nov-09 23:59N 35°28' E 139°42'0 0.0
2017-Nov-09 23:29N 35°28' E 139°42'0 0.0
2017-Nov-09 23:00N 35°28' E 139°42'2 4.3
2017-Nov-09 22:30N 35°27' E 139°44'713.9
2017-Nov-09 22:00N 35°31' E 139°51'612.3
2017-Nov-09 21:30N 35°36' E 139°47'2 3.1
2017-Nov-09 20:56N 35°37' E 139°46'0 0.0
2017-Nov-09 20:14N 35°37' E 139°46'0 0.0
2017-Nov-09 19:56N 35°37' E 139°46'0 0.0
2017-Nov-09 18:08N 35°37' E 139°46'0 0.0
2017-Nov-09 17:56N 35°37' E 139°46'0 0.0
2017-Nov-09 17:20N 35°37' E 139°46'0 0.0
2017-Nov-08 22:38N 35°37' E 139°46'0 0.0
2017-Nov-08 22:30N 35°37' E 139°46'2 4.5
2017-Nov-08 22:00N 35°35' E 139°47'611.3
2017-Nov-08 21:30N 35°31' E 139°52'511.0
2017-Nov-08 21:01N 35°27' E 139°49'611.4
2017-Nov-08 20:31N 35°22' E 139°45'510.5
2017-Nov-08 20:01N 35°17' E 139°46'510.5
2017-Nov-08 19:31N 35°12' E 139°47'612.0
2017-Nov-08 19:01N 35°06' E 139°45'  

Dump ship's entire track history